Time;durP1;ratioP1;P1;durP2;ratioP2;P2;SDS_P1;SDS_P2;PMS_P1;PMS_P2;Temp;Humidity;BMP_temperature;BMP_pressure;BME280_temperature;BME280_humidity;BME280_pressure;Samples;Min_cycle;Max_cycle;Signal;HPM_P1;HPM_P2
2023/12/20 00:00:50;;;;;;;0.10;0.10;;;;;;;9.11;70.84;101692.22;5087732;28;20028;-80
2023/12/20 00:03:16;;;;;;;0.10;0.10;;;;;;;9.04;70.47;101688.72;5085856;28;20033;-80
2023/12/20 00:05:45;;;;;;;0.10;0.10;;;;;;;9.01;70.46;101700.16;5086445;28;20092;-82
2023/12/20 00:08:12;;;;;;;0.15;0.15;;;;;;;8.96;69.63;101695.75;5088813;28;20058;-82
2023/12/20 00:10:38;;;;;;;0.10;0.10;;;;;;;9.02;70.08;101701.94;5087482;28;20051;-80
2023/12/20 00:13:04;;;;;;;0.10;0.10;;;;;;;9.00;70.29;101708.97;5089663;28;20484;-82
2023/12/20 00:15:30;;;;;;;0.20;0.20;;;;;;;8.97;70.11;101698.41;5085214;28;20052;-81
2023/12/20 00:17:56;;;;;;;0.10;0.10;;;;;;;9.04;70.13;101707.22;5089510;28;20043;-80
2023/12/20 00:20:22;;;;;;;0.10;0.10;;;;;;;9.04;69.99;101705.44;5089447;28;20037;-80
2023/12/20 00:22:49;;;;;;;0.10;0.10;;;;;;;9.00;69.84;101708.97;5081978;28;20025;-80
2023/12/20 00:25:15;;;;;;;0.20;0.20;;;;;;;9.03;70.17;101692.22;5076568;28;20032;-79
2023/12/20 00:27:42;;;;;;;0.20;0.20;;;;;;;9.11;69.77;101695.78;5081619;28;20059;-80
2023/12/20 00:30:09;;;;;;;0.20;0.20;;;;;;;9.13;70.02;101695.75;5076017;28;20421;-81
2023/12/20 00:32:35;;;;;;;0.20;0.20;;;;;;;9.03;70.00;101692.22;5083965;28;20052;-79
2023/12/20 00:35:02;;;;;;;0.10;0.10;;;;;;;9.07;70.17;101689.59;5096606;28;20044;-80
2023/12/20 00:37:28;;;;;;;0.20;0.20;;;;;;;9.08;70.67;101679.88;5091487;28;20611;-83
2023/12/20 00:39:54;;;;;;;0.20;0.20;;;;;;;9.13;70.67;101679.91;5074449;28;20032;-81
2023/12/20 00:42:20;;;;;;;0.20;0.20;;;;;;;9.01;70.50;101686.97;5072492;28;20033;-83
2023/12/20 00:44:46;;;;;;;0.10;0.10;;;;;;;9.10;70.13;101694.00;5079963;28;20089;-82
2023/12/20 00:47:13;;;;;;;0.10;0.10;;;;;;;9.09;70.67;101688.72;5073819;28;20085;-81
2023/12/20 00:49:39;;;;;;;0.60;0.60;;;;;;;9.13;70.46;101687.84;5076599;28;20033;-80
2023/12/20 00:52:05;;;;;;;0.50;0.47;;;;;;;9.07;70.26;101694.88;5083830;28;20074;-80
2023/12/20 00:54:32;;;;;;;2.85;1.08;;;;;;;9.06;69.98;101686.97;5082806;28;20029;-83
2023/12/20 00:56:58;;;;;;;1.13;1.13;;;;;;;9.10;69.93;101693.09;5089309;28;20027;-80
2023/12/20 00:59:24;;;;;;;0.20;0.20;;;;;;;9.14;70.42;101681.66;5087697;28;20036;-82
2023/12/20 01:01:51;;;;;;;0.20;0.20;;;;;;;9.13;70.10;101678.13;5089307;28;20032;-81
2023/12/20 01:04:17;;;;;;;0.10;0.10;;;;;;;9.22;70.04;101678.13;5080268;28;20029;-83
2023/12/20 01:06:43;;;;;;;0.10;0.10;;;;;;;9.22;70.55;101677.22;5085962;28;20034;-82
2023/12/20 01:09:09;;;;;;;0.20;0.20;;;;;;;9.26;69.99;101692.25;5079343;28;20037;-81
2023/12/20 01:11:35;;;;;;;0.20;0.20;;;;;;;9.27;70.16;101690.47;5074679;28;20040;-81
2023/12/20 01:14:02;;;;;;;0.10;0.10;;;;;;;9.29;69.82;101689.56;5075170;28;20028;-82
2023/12/20 01:16:28;;;;;;;0.10;0.10;;;;;;;9.28;69.63;101702.81;5078195;28;20039;-82
2023/12/20 01:18:54;;;;;;;0.10;0.10;;;;;;;9.30;69.26;101696.63;5081868;28;20032;-81
2023/12/20 01:21:20;;;;;;;0.20;0.20;;;;;;;9.28;68.98;101698.38;5072999;28;20035;-81
2023/12/20 01:23:46;;;;;;;0.13;0.13;;;;;;;9.42;69.08;101684.25;5079801;28;20119;-82
2023/12/20 01:26:12;;;;;;;0.20;0.20;;;;;;;9.43;68.75;101678.09;5073394;28;20028;-82
2023/12/20 01:28:39;;;;;;;0.17;0.17;;;;;;;9.34;68.41;101687.78;5077626;28;20039;-82
2023/12/20 01:31:05;;;;;;;0.10;0.10;;;;;;;9.49;68.96;101689.53;5071557;28;20025;-81
2023/12/20 01:33:31;;;;;;;0.40;0.40;;;;;;;9.35;68.08;101686.06;5073310;28;20029;-82
2023/12/20 01:35:57;;;;;;;0.20;0.20;;;;;;;9.42;69.14;101697.50;5075038;28;20032;-83
2023/12/20 01:38:23;;;;;;;0.10;0.10;;;;;;;9.40;68.93;101689.56;5074909;28;20506;-82
2023/12/20 01:40:49;;;;;;;0.10;0.10;;;;;;;9.49;68.96;101686.88;5085799;28;20081;-83
2023/12/20 01:43:16;;;;;;;0.65;0.65;;;;;;;9.51;68.26;101681.63;5075716;28;20075;-81
2023/12/20 01:45:42;;;;;;;0.80;0.80;;;;;;;9.45;68.46;101674.56;5075419;28;20038;-82
2023/12/20 01:48:09;;;;;;;0.20;0.20;;;;;;;9.53;68.59;101678.09;5079005;28;20020;-81
2023/12/20 01:50:39;;;;;;;1.23;0.88;;;;;;;9.53;68.10;101677.19;5076099;28;20068;-81
2023/12/20 01:53:08;;;;;;;0.20;0.20;;;;;;;9.58;68.24;101669.25;5076642;28;20506;-80
2023/12/20 01:55:38;;;;;;;0.17;0.17;;;;;;;9.52;68.07;101671.03;5082202;28;20107;-81
2023/12/20 01:58:05;;;;;;;0.40;0.40;;;;;;;9.52;68.54;101681.63;5075670;28;20108;-80
2023/12/20 02:00:31;;;;;;;0.10;0.10;;;;;;;9.49;68.35;101681.59;5072008;28;20039;-82
2023/12/20 02:03:01;;;;;;;0.20;0.20;;;;;;;9.52;68.61;101680.72;5071417;28;20044;-81
2023/12/20 02:05:27;;;;;;;0.20;0.20;;;;;;;9.50;68.66;101674.56;5071827;28;20399;-81
2023/12/20 02:07:54;;;;;;;0.20;0.20;;;;;;;9.56;67.87;101690.44;5094875;28;20036;-80
2023/12/20 02:10:20;;;;;;;0.20;0.20;;;;;;;9.61;68.19;101686.00;5091726;28;20013;-80
2023/12/20 02:12:46;;;;;;;0.28;0.28;;;;;;;9.53;67.24;101690.41;5082689;28;20023;-81
2023/12/20 02:15:13;;;;;;;0.22;0.22;;;;;;;9.59;67.23;101676.31;5092840;28;20056;-82
2023/12/20 02:17:39;;;;;;;0.20;0.20;;;;;;;9.58;67.31;101685.13;5088012;28;20025;-81
2023/12/20 02:20:06;;;;;;;0.13;0.13;;;;;;;9.50;67.32;101693.94;5081842;28;20028;-84
2023/12/20 02:22:32;;;;;;;0.52;0.52;;;;;;;9.67;67.38;101683.34;5078583;28;20029;-82
2023/12/20 02:24:59;;;;;;;0.20;0.20;;;;;;;9.66;67.19;101681.56;5076039;28;20025;-82
2023/12/20 02:27:25;;;;;;;8.20;3.33;;;;;;;9.70;67.68;101679.81;5074917;28;20073;-80
2023/12/20 02:29:51;;;;;;;0.20;0.20;;;;;;;9.66;67.25;101672.78;5074543;28;20035;-82
2023/12/20 02:32:20;;;;;;;0.47;0.47;;;;;;;9.75;67.21;101661.28;5070966;28;20437;-81
2023/12/20 02:34:48;;;;;;;0.40;0.40;;;;;;;9.70;67.13;101658.63;5091642;28;20495;-83
2023/12/20 02:37:14;;;;;;;0.10;0.10;;;;;;;9.79;67.04;101663.88;5076729;28;20399;-82
2023/12/20 02:39:40;;;;;;;0.20;0.20;;;;;;;9.78;66.46;101653.31;5071549;28;20060;-82
2023/12/20 02:42:06;;;;;;;0.10;0.10;;;;;;;9.81;66.58;101661.25;5073583;28;20077;-82
2023/12/20 02:44:33;;;;;;;0.20;0.20;;;;;;;9.79;66.67;101663.00;5070807;28;20713;-82
2023/12/20 02:46:59;;;;;;;0.20;0.20;;;;;;;9.74;66.66;101659.50;5071125;28;20032;-81
2023/12/20 02:49:25;;;;;;;0.10;0.10;;;;;;;9.69;66.50;101657.75;5072198;28;20024;-81
2023/12/20 02:51:51;;;;;;;0.15;0.15;;;;;;;9.64;66.69;101648.06;5069640;28;20077;-81
2023/12/20 02:54:17;;;;;;;0.45;0.45;;;;;;;9.68;66.26;101650.69;5074070;28;20104;-82
2023/12/20 02:56:43;;;;;;;0.50;0.50;;;;;;;9.81;66.26;101650.66;5072803;28;20037;-82
2023/12/20 02:59:10;;;;;;;0.43;0.43;;;;;;;9.71;66.43;101644.53;5070364;28;20100;-82
2023/12/20 03:01:41;;;;;;;0.50;0.50;;;;;;;9.65;65.92;101645.41;5072087;28;20036;-81
2023/12/20 03:04:07;;;;;;;0.20;0.20;;;;;;;9.77;65.93;101646.25;5073273;28;20021;-80
2023/12/20 03:06:33;;;;;;;0.20;0.20;;;;;;;9.76;65.36;101652.41;5072175;28;20033;-80
2023/12/20 03:08:59;;;;;;;0.13;0.13;;;;;;;9.69;65.79;101641.88;5072456;28;20078;-81
2023/12/20 03:11:29;;;;;;;0.10;0.10;;;;;;;9.81;66.00;101638.28;5063835;28;20044;-80
2023/12/20 03:13:55;;;;;;;0.20;0.20;;;;;;;9.77;66.05;101639.22;5073724;28;20277;-81
2023/12/20 03:16:22;;;;;;;0.30;0.30;;;;;;;9.62;66.03;101632.19;5070639;28;20443;-81
2023/12/20 03:18:48;;;;;;;1.48;1.45;;;;;;;9.67;66.47;101627.78;5068391;28;20071;-81
2023/12/20 03:21:14;;;;;;;0.10;0.10;;;;;;;9.69;65.99;101631.31;5072867;28;20024;-81
2023/12/20 03:23:41;;;;;;;9.00;2.65;;;;;;;9.77;66.02;101618.03;5068745;28;20372;-81
2023/12/20 03:26:08;;;;;;;0.10;0.10;;;;;;;9.87;65.98;101621.53;5072038;28;20021;-80
2023/12/20 03:28:36;;;;;;;0.10;0.10;;;;;;;9.70;65.99;101625.09;5072691;28;20032;-81
2023/12/20 03:31:02;;;;;;;0.13;0.13;;;;;;;9.68;66.02;101624.25;5066675;28;20111;-81
2023/12/20 03:33:29;;;;;;;0.13;0.13;;;;;;;9.77;65.77;101620.69;5071055;28;20025;-80
2023/12/20 03:35:55;;;;;;;0.20;0.20;;;;;;;9.83;65.66;101625.03;5068366;28;20036;-82
2023/12/20 03:38:23;;;;;;;0.20;0.20;;;;;;;9.60;65.85;101636.59;5075796;28;20041;-80
2023/12/20 03:40:50;;;;;;;0.10;0.10;;;;;;;9.71;65.67;101640.09;5087059;28;20054;-80
2023/12/20 03:43:16;;;;;;;0.13;0.13;;;;;;;9.76;65.65;101633.91;5084343;28;20024;-81
2023/12/20 03:45:43;;;;;;;0.10;0.10;;;;;;;9.67;65.61;101638.34;5072054;28;20541;-81
2023/12/20 03:48:09;;;;;;;0.17;0.17;;;;;;;9.74;65.45;101635.69;5071523;28;20241;-81
2023/12/20 03:50:35;;;;;;;0.25;0.25;;;;;;;9.67;65.46;101638.34;5071068;28;20045;-81
2023/12/20 03:53:02;;;;;;;0.20;0.20;;;;;;;9.63;64.91;101641.00;5071437;28;20028;-82
2023/12/20 03:55:28;;;;;;;0.10;0.10;;;;;;;9.74;64.93;101638.34;5076789;28;20024;-80
2023/12/20 03:57:54;;;;;;;0.10;0.10;;;;;;;9.84;65.19;101632.09;5075048;28;20021;-81
2023/12/20 04:00:20;;;;;;;0.20;0.20;;;;;;;9.68;64.92;101626.88;5082280;28;20021;-83
2023/12/20 04:02:47;;;;;;;0.10;0.10;;;;;;;9.73;64.73;101626.84;5088522;28;20032;-82
2023/12/20 04:05:13;;;;;;;0.20;0.20;;;;;;;9.78;64.76;101640.97;5089105;28;20033;-83
2023/12/20 04:07:39;;;;;;;1.98;1.85;;;;;;;9.64;64.69;101648.94;5086708;28;20028;-83
2023/12/20 04:10:06;;;;;;;0.10;0.10;;;;;;;9.78;64.81;101629.47;5095973;28;20037;-80
2023/12/20 04:12:32;;;;;;;1.30;1.27;;;;;;;9.65;64.71;101641.91;5090164;28;20115;-83
2023/12/20 04:14:58;;;;;;;0.10;0.10;;;;;;;9.71;64.77;101634.81;5079923;28;20028;-82
2023/12/20 04:17:25;;;;;;;0.20;0.20;;;;;;;9.76;65.10;101637.44;5082934;28;20047;-81
2023/12/20 04:19:51;;;;;;;0.20;0.20;;;;;;;9.84;64.91;101640.03;5078748;28;20044;-82
2023/12/20 04:22:18;;;;;;;0.20;0.20;;;;;;;9.81;64.66;101625.06;5084586;28;20021;-83
2023/12/20 04:24:45;;;;;;;0.32;0.32;;;;;;;9.84;64.91;101634.75;5084511;28;20056;-81
2023/12/20 04:27:11;;;;;;;0.20;0.20;;;;;;;9.86;64.87;101633.00;5084010;28;20031;-82
2023/12/20 04:29:38;;;;;;;0.05;0.05;;;;;;;9.83;65.01;101627.69;5083172;28;20016;-83
2023/12/20 04:32:05;;;;;;;3.30;1.85;;;;;;;9.92;64.84;101625.03;5083060;28;20119;-82
2023/12/20 04:34:31;;;;;;;9.23;2.05;;;;;;;9.85;65.03;101631.22;5080983;28;20052;-81
2023/12/20 04:36:57;;;;;;;0.75;0.75;;;;;;;9.82;65.03;101628.56;5087595;28;20387;-82
2023/12/20 04:39:23;;;;;;;0.10;0.10;;;;;;;9.85;65.12;101621.50;5100064;28;20028;-79
2023/12/20 04:41:50;;;;;;;0.25;0.25;;;;;;;9.91;64.80;101620.63;5108017;28;20040;-82
2023/12/20 04:44:16;;;;;;;0.20;0.20;;;;;;;9.81;65.01;101621.56;5102191;28;20024;-81
2023/12/20 04:46:42;;;;;;;0.15;0.15;;;;;;;9.63;65.76;101617.19;5090615;28;20032;-82
2023/12/20 04:49:08;;;;;;;0.15;0.15;;;;;;;9.74;65.37;101606.56;5083232;28;20058;-82
2023/12/20 04:51:35;;;;;;;0.32;0.32;;;;;;;9.61;65.33;101616.31;5096107;28;20043;-82
2023/12/20 04:54:02;;;;;;;0.20;0.20;;;;;;;9.51;65.43;101610.19;5095263;28;20024;-81
2023/12/20 04:56:28;;;;;;;0.10;0.10;;;;;;;9.62;65.12;101611.03;5100810;28;20055;-83
2023/12/20 04:58:54;;;;;;;0.20;0.20;;;;;;;9.55;64.87;101607.50;5090007;28;20020;-81
2023/12/20 05:01:21;;;;;;;0.10;0.10;;;;;;;9.69;65.05;101604.84;5093960;28;20027;-83
2023/12/20 05:03:47;;;;;;;0.20;0.20;;;;;;;9.70;64.85;101601.28;5102515;28;20033;-83
2023/12/20 05:06:14;;;;;;;0.20;0.20;;;;;;;9.63;64.84;101603.97;5094966;28;20028;-82
2023/12/20 05:08:40;;;;;;;0.10;0.10;;;;;;;9.64;64.99;101601.31;5087735;28;20036;-80
2023/12/20 05:11:07;;;;;;;0.10;0.10;;;;;;;9.66;64.80;101612.78;5089730;28;20041;-82
2023/12/20 05:13:33;;;;;;;0.10;0.10;;;;;;;9.66;64.55;101607.47;5099407;28;20087;-82
2023/12/20 05:15:59;;;;;;;0.15;0.15;;;;;;;9.70;64.65;101616.28;5091739;28;20035;-81
2023/12/20 05:18:25;;;;;;;0.10;0.10;;;;;;;9.62;64.87;101603.09;5088295;28;20080;-81
2023/12/20 05:20:52;;;;;;;0.10;0.10;;;;;;;9.64;64.87;101611.03;5091251;28;20028;-81
2023/12/20 05:23:20;;;;;;;1.40;1.30;;;;;;;9.56;64.77;101629.56;5086385;28;20028;-82
2023/12/20 05:25:46;;;;;;;0.10;0.10;;;;;;;9.63;64.86;101625.13;5083749;28;20059;-81
2023/12/20 05:28:12;;;;;;;0.10;0.10;;;;;;;9.56;65.07;101624.28;5082684;28;20024;-81
2023/12/20 05:30:38;;;;;;;0.10;0.10;;;;;;;9.65;64.94;101624.25;5083442;28;20491;-82
2023/12/20 05:33:04;;;;;;;0.15;0.15;;;;;;;9.70;65.06;101622.44;5078176;28;20043;-80
2023/12/20 05:35:30;;;;;;;0.20;0.20;;;;;;;9.75;64.67;101614.50;5086058;28;20048;-80
2023/12/20 05:37:57;;;;;;;0.10;0.10;;;;;;;9.69;65.27;101618.06;5085146;28;20064;-81
2023/12/20 05:40:23;;;;;;;0.20;0.20;;;;;;;9.72;65.27;101614.53;5085606;28;20063;-82
2023/12/20 05:42:49;;;;;;;0.10;0.10;;;;;;;9.78;65.40;101618.91;5091998;28;20036;-82
2023/12/20 05:45:15;;;;;;;0.20;0.20;;;;;;;9.83;65.17;101618.00;5090182;28;20067;-80
2023/12/20 05:47:42;;;;;;;1.65;0.73;;;;;;;9.87;65.24;101605.66;5101810;28;20088;-80
2023/12/20 05:50:08;;;;;;;1.13;0.77;;;;;;;9.77;65.78;101607.44;5096452;28;20095;-82
2023/12/20 05:52:35;;;;;;;0.20;0.20;;;;;;;9.74;65.56;101596.00;5093740;28;20054;-83
2023/12/20 05:55:01;;;;;;;0.10;0.10;;;;;;;9.87;65.39;101592.41;5098752;28;20014;-81
2023/12/20 05:57:27;;;;;;;0.10;0.10;;;;;;;9.92;65.26;101595.91;5095673;28;20425;-82
2023/12/20 05:59:53;;;;;;;0.55;0.55;;;;;;;9.90;65.45;101592.38;5098312;28;20058;-82
2023/12/20 06:02:20;;;;;;;0.15;0.15;;;;;;;9.98;65.26;101611.75;5093851;28;20112;-82
2023/12/20 06:04:46;;;;;;;0.20;0.20;;;;;;;9.97;65.30;101615.28;5097654;28;20077;-82
2023/12/20 06:07:13;;;;;;;0.20;0.20;;;;;;;10.06;65.26;101602.91;5098306;28;20102;-81
2023/12/20 06:09:39;;;;;;;0.15;0.15;;;;;;;10.01;65.30;101606.44;5084086;28;20090;-83
2023/12/20 06:12:08;;;;;;;0.10;0.10;;;;;;;10.10;65.42;101615.22;5085940;28;20047;-82
2023/12/20 06:14:34;;;;;;;0.45;0.45;;;;;;;10.02;65.34;101610.84;5094807;28;20051;-82
2023/12/20 06:17:01;;;;;;;0.20;0.20;;;;;;;10.04;65.70;101606.44;5096667;28;20494;-82
2023/12/20 06:19:28;;;;;;;0.10;0.10;;;;;;;9.96;65.28;101617.94;5088423;28;20093;-82
2023/12/20 06:21:54;;;;;;;0.13;0.13;;;;;;;9.94;65.47;101604.69;5089629;28;20032;-83
2023/12/20 06:24:21;;;;;;;0.20;0.20;;;;;;;9.96;65.53;101608.22;5084841;28;20313;-83
2023/12/20 06:26:47;;;;;;;0.30;0.30;;;;;;;10.07;65.15;101604.63;5086015;28;20033;-82
2023/12/20 06:29:13;;;;;;;0.20;0.20;;;;;;;10.04;64.92;101626.72;5093721;28;20028;-82
2023/12/20 06:31:39;;;;;;;0.20;0.20;;;;;;;10.24;64.86;101600.13;5089129;28;20020;-83
2023/12/20 06:34:05;;;;;;;0.10;0.10;;;;;;;10.20;64.71;101595.72;5094202;28;20019;-83
2023/12/20 06:36:32;;;;;;;1.70;1.25;;;;;;;10.11;64.79;101590.50;5084497;28;20050;-82
2023/12/20 06:38:58;;;;;;;0.17;0.17;;;;;;;10.09;64.88;101608.16;5087421;28;20434;-83
2023/12/20 06:41:24;;;;;;;0.10;0.10;;;;;;;10.24;64.90;101602.75;5078319;28;20043;-83
2023/12/20 06:43:52;;;;;;;0.08;0.08;;;;;;;10.27;64.40;101597.47;5079122;28;20029;-82
2023/12/20 06:46:18;;;;;;;0.10;0.10;;;;;;;10.32;64.60;101595.66;5096845;28;20021;-82
2023/12/20 06:48:45;;;;;;;0.10;0.10;;;;;;;10.26;64.60;101589.53;5084674;28;20044;-81
2023/12/20 06:51:15;;;;;;;0.10;0.10;;;;;;;10.25;64.68;101598.38;5095433;28;20111;-81
2023/12/20 06:53:41;;;;;;;0.20;0.20;;;;;;;10.21;64.79;101597.50;5090318;28;20028;-81
2023/12/20 06:56:07;;;;;;;1.85;0.57;;;;;;;10.24;64.60;101588.66;5098578;28;20115;-83
2023/12/20 06:58:33;;;;;;;0.10;0.10;;;;;;;10.27;64.65;101594.81;5097089;28;20028;-84
2023/12/20 07:01:00;;;;;;;0.20;0.20;;;;;;;10.33;64.55;101586.81;5091186;28;20047;-83
2023/12/20 07:03:26;;;;;;;0.43;0.40;;;;;;;10.40;64.26;101586.81;5095414;28;20028;-85
2023/12/20 07:05:52;;;;;;;0.10;0.10;;;;;;;10.31;64.32;101587.72;5097220;28;20029;-81
2023/12/20 07:08:19;;;;;;;0.10;0.10;;;;;;;10.33;64.53;101576.22;5102159;28;20568;-84
2023/12/20 07:10:45;;;;;;;0.10;0.10;;;;;;;10.34;64.59;101588.59;5092559;28;20047;-85
2023/12/20 07:13:12;;;;;;;0.10;0.10;;;;;;;10.20;64.91;101580.75;5094393;28;20024;-85
2023/12/20 07:15:38;;;;;;;1.05;1.05;;;;;;;10.37;64.43;101571.81;5083400;28;20051;-85
2023/12/20 07:18:06;;;;;;;0.10;0.10;;;;;;;10.36;64.84;101578.88;5083160;28;20032;-86
2023/12/20 07:20:32;;;;;;;0.77;0.77;;;;;;;10.37;64.26;101571.81;5089214;28;20063;-85
2023/12/20 07:22:58;;;;;;;0.10;0.10;;;;;;;10.39;64.35;101569.16;5099678;28;20086;-85
2023/12/20 07:25:24;;;;;;;0.10;0.10;;;;;;;10.40;64.06;101568.28;5095264;28;20035;-86
2023/12/20 07:27:50;;;;;;;0.10;0.10;;;;;;;10.32;64.41;101561.22;5086762;28;20514;-86
2023/12/20 07:30:17;;;;;;;5.00;3.50;;;;;;;10.34;64.38;101566.50;5092020;28;20443;-85
2023/12/20 07:32:43;;;;;;;0.10;0.10;;;;;;;10.33;64.58;101565.63;5078095;28;20033;-85
2023/12/20 07:35:09;;;;;;;0.10;0.10;;;;;;;10.21;64.96;101560.41;5081213;28;20020;-86
2023/12/20 07:37:35;;;;;;;0.10;0.10;;;;;;;10.19;64.82;101570.13;5088079;28;20036;-85
2023/12/20 07:40:04;;;;;;;0.85;0.85;;;;;;;10.15;64.94;101571.91;5085202;28;20063;-85
2023/12/20 07:42:30;;;;;;;1.65;0.90;;;;;;;10.14;65.02;101571.94;5091742;28;20097;-85
2023/12/20 07:44:56;;;;;;;0.10;0.10;;;;;;;10.14;65.12;101587.81;5087042;28;20999;-85
2023/12/20 07:47:22;;;;;;;3.85;2.05;;;;;;;10.18;65.20;101586.91;5088748;28;20035;-85
2023/12/20 07:49:51;;;;;;;0.20;0.20;;;;;;;10.15;65.28;101589.59;5083912;28;20068;-87
2023/12/20 07:52:18;;;;;;;0.10;0.10;;;;;;;10.15;65.22;101586.94;5092281;28;20049;-87
2023/12/20 07:54:44;;;;;;;0.10;0.10;;;;;;;10.16;65.33;101586.06;5084673;28;20390;-87
2023/12/20 07:57:11;;;;;;;0.20;0.20;;;;;;;10.25;65.41;101593.94;5077522;28;20483;-87
2023/12/20 07:59:37;;;;;;;0.17;0.17;;;;;;;10.22;65.41;101599.25;5073148;28;20403;-86
2023/12/20 08:02:04;;;;;;;1.25;1.25;;;;;;;10.27;65.00;101609.81;5084644;28;20020;-84
2023/12/20 08:04:30;;;;;;;0.40;0.40;;;;;;;10.29;65.06;101602.75;5069041;28;20033;-84
2023/12/20 08:06:56;;;;;;;0.10;0.10;;;;;;;10.26;65.31;101611.59;5069676;28;20075;-83
2023/12/20 08:09:22;;;;;;;0.10;0.10;;;;;;;10.33;64.96;101610.66;5083467;28;20027;-84
2023/12/20 08:11:49;;;;;;;0.10;0.10;;;;;;;10.37;65.00;101619.50;5088871;28;20056;-83
2023/12/20 08:14:16;;;;;;;0.10;0.10;;;;;;;10.31;64.95;101615.09;5080843;28;20420;-84
2023/12/20 08:17:02;;;;;;;0.10;0.10;;;;;;;10.40;64.92;101598.28;5090187;28;20029;-84
2023/12/20 08:19:28;;;;;;;0.10;0.10;;;;;;;10.36;65.08;101605.38;5097621;28;20036;-83
2023/12/20 08:21:55;;;;;;;0.30;0.30;;;;;;;10.43;64.71;101592.06;5100857;28;20037;-83
2023/12/20 08:24:21;;;;;;;0.20;0.20;;;;;;;10.41;65.14;101605.34;5095177;28;20020;-84
2023/12/20 08:26:47;;;;;;;1.20;1.20;;;;;;;10.54;64.81;101584.06;5102682;27;20036;-84
2023/12/20 08:29:14;;;;;;;0.10;0.10;;;;;;;10.41;65.23;101584.16;5086205;28;20109;-83
2023/12/20 08:31:40;;;;;;;0.20;0.20;;;;;;;10.47;65.43;101583.25;5080979;28;20039;-83
2023/12/20 08:34:06;;;;;;;0.50;0.50;;;;;;;10.57;65.13;101578.75;5077608;28;20090;-83
2023/12/20 08:36:32;;;;;;;0.20;0.20;;;;;;;10.54;64.94;101573.47;5081514;28;20066;-82
2023/12/20 08:39:00;;;;;;;0.20;0.20;;;;;;;10.49;64.96;101581.44;5080362;28;20105;-85
2023/12/20 08:41:26;;;;;;;0.20;0.20;;;;;;;10.45;65.29;101596.47;5087692;28;20119;-85
2023/12/20 08:43:52;;;;;;;0.93;0.93;;;;;;;10.63;64.86;101598.13;5081347;28;20052;-84
2023/12/20 08:46:19;;;;;;;0.20;0.20;;;;;;;10.63;64.82;101607.81;5091822;28;20055;-86
2023/12/20 08:48:45;;;;;;;0.10;0.10;;;;;;;10.65;64.89;101603.41;5080901;28;20111;-85
2023/12/20 08:51:11;;;;;;;0.20;0.20;;;;;;;10.62;64.98;101604.31;5102885;28;20020;-85
2023/12/20 08:53:38;;;;;;;1.60;1.50;;;;;;;10.56;64.67;101614.94;5094361;28;20047;-86
2023/12/20 08:56:04;;;;;;;0.10;0.10;;;;;;;10.54;64.68;101610.56;5097640;28;20020;-86
2023/12/20 08:58:31;;;;;;;0.10;0.10;;;;;;;10.62;64.05;101596.34;5099600;28;20013;-86
2023/12/20 09:00:57;;;;;;;0.15;0.15;;;;;;;10.70;63.89;101614.84;5081874;28;20062;-85
2023/12/20 09:03:23;;;;;;;0.10;0.10;;;;;;;10.65;64.00;101599.00;5093808;28;20035;-83
2023/12/20 09:05:49;;;;;;;5.78;3.30;;;;;;;10.81;63.93;101593.53;5089135;28;20070;-85
2023/12/20 09:08:15;;;;;;;0.20;0.20;;;;;;;10.79;63.69;101597.97;5084904;28;20028;-82
2023/12/20 09:10:41;;;;;;;0.10;0.10;;;;;;;10.85;63.60;101592.63;5088050;28;20063;-82
2023/12/20 09:13:08;;;;;;;0.10;0.10;;;;;;;10.92;63.82;101596.97;5098263;28;20028;-82
2023/12/20 09:15:34;;;;;;;0.10;0.10;;;;;;;11.04;63.38;101585.38;5085122;28;20039;-83
2023/12/20 09:18:00;;;;;;;0.73;0.73;;;;;;;11.06;63.03;101580.06;5088885;28;20040;-85
2023/12/20 09:20:27;;;;;;;0.65;0.65;;;;;;;11.05;63.44;101583.59;5085876;28;20063;-85
2023/12/20 09:22:53;;;;;;;0.10;0.10;;;;;;;11.08;63.16;101578.25;5088805;28;20028;-82
2023/12/20 09:25:20;;;;;;;0.10;0.10;;;;;;;11.03;63.54;101588.03;5094438;28;20020;-84
2023/12/20 09:27:46;;;;;;;0.10;0.10;;;;;;;10.97;63.24;101573.94;5091202;28;20080;-84
2023/12/20 09:30:12;;;;;;;0.55;0.55;;;;;;;11.06;63.27;101582.72;5091376;28;20098;-84
2023/12/20 09:32:39;;;;;;;6.68;2.42;;;;;;;11.16;63.22;101589.66;5082034;28;20024;-86
2023/12/20 09:35:06;;;;;;;0.10;0.10;;;;;;;11.15;62.79;101590.56;5101829;28;20016;-85
2023/12/20 09:37:32;;;;;;;0.10;0.10;;;;;;;11.14;63.11;101599.41;5097452;28;20017;-84
2023/12/20 09:39:59;;;;;;;0.10;0.10;;;;;;;11.12;63.12;101588.81;5089211;28;20029;-84
2023/12/20 09:42:41;;;;;;;0.10;0.10;;;;;;;11.32;63.09;101588.59;5087169;28;20076;-86
2023/12/20 09:45:13;;;;;;;1.27;1.17;;;;;;;11.26;62.88;101598.41;5084930;28;20050;-85
2023/12/20 09:47:40;;;;;;;0.10;0.10;;;;;;;11.29;63.10;101587.75;5087933;28;20073;-87
2023/12/20 09:50:06;;;;;;;0.10;0.10;;;;;;;11.40;63.07;101598.25;5094173;28;20027;-88
2023/12/20 09:52:36;;;;;;;0.30;0.30;;;;;;;11.41;62.87;101597.38;5101721;28;20073;-81
2023/12/20 09:55:05;;;;;;;5.38;1.20;;;;;;;11.33;63.19;101605.41;5111404;28;20024;-86
2023/12/20 09:57:32;;;;;;;1.05;1.05;;;;;;;11.36;63.29;101615.13;5082508;28;20070;-86
2023/12/20 09:59:58;;;;;;;1.17;1.17;;;;;;;11.39;62.95;101601.78;5092493;28;20261;-85
2023/12/20 10:02:27;;;;;;;0.10;0.10;;;;;;;11.40;62.72;101619.47;5092907;28;20071;-86
2023/12/20 10:04:54;;;;;;;0.10;0.10;;;;;;;11.37;63.25;101622.19;5097515;28;20039;-84
2023/12/20 10:07:20;;;;;;;0.10;0.10;;;;;;;11.50;62.53;101597.25;5087573;28;20020;-83
2023/12/20 10:09:48;;;;;;;0.38;0.38;;;;;;;11.52;63.13;101610.53;5089410;28;20043;-84
2023/12/20 10:12:14;;;;;;;0.17;0.17;;;;;;;11.53;62.44;101606.97;5088134;28;20048;-84
2023/12/20 10:14:40;;;;;;;0.10;0.10;;;;;;;11.63;62.34;101612.13;5082840;28;20123;-85
2023/12/20 10:17:07;;;;;;;0.10;0.10;;;;;;;11.63;62.35;101605.97;5089181;28;20024;-84
2023/12/20 10:19:33;;;;;;;0.10;0.10;;;;;;;11.61;62.41;101599.78;5082664;28;20048;-85
2023/12/20 10:22:00;;;;;;;0.15;0.15;;;;;;;11.56;62.76;101609.56;5086509;28;20031;-85
2023/12/20 10:24:29;;;;;;;0.13;0.13;;;;;;;11.67;62.42;101602.34;5087498;28;20029;-85
2023/12/20 10:27:04;;;;;;;0.10;0.10;;;;;;;11.57;61.79;101611.34;5083158;28;20025;-84
2023/12/20 10:29:34;;;;;;;0.10;0.10;;;;;;;11.71;61.79;101587.28;5091043;28;20031;-82
2023/12/20 10:32:20;;;;;;;0.10;0.10;;;;;;;11.63;61.77;101585.59;5073244;28;20028;-85
2023/12/20 10:34:46;;;;;;;0.10;0.10;;;;;;;11.72;61.19;101587.25;5077164;28;20067;-88
2023/12/20 10:37:13;;;;;;;1.10;1.08;;;;;;;11.57;62.11;101585.66;5078460;28;20021;-84
2023/12/20 10:39:40;;;;;;;0.10;0.10;;;;;;;11.52;61.67;101579.53;5090492;28;20024;-85
2023/12/20 10:42:07;;;;;;;1.00;1.00;;;;;;;11.67;61.77;101585.56;5084833;28;20035;-84
2023/12/20 10:44:33;;;;;;;0.20;0.20;;;;;;;11.74;62.00;101585.47;5084925;28;20031;-84
2023/12/20 10:47:00;;;;;;;0.10;0.10;;;;;;;11.64;61.77;101571.44;5077537;28;20028;-85
2023/12/20 10:49:28;;;;;;;0.13;0.13;;;;;;;11.62;61.69;101572.34;5077743;28;20448;-85
2023/12/20 10:51:57;;;;;;;0.63;0.63;;;;;;;11.55;61.87;101562.69;5081597;28;20032;-88
2023/12/20 10:54:23;;;;;;;0.25;0.25;;;;;;;11.58;62.13;101570.63;5072906;28;20047;-85
2023/12/20 10:56:53;;;;;;;0.20;0.20;;;;;;;11.77;61.47;101576.56;5080996;28;20025;-85
2023/12/20 10:59:22;;;;;;;0.10;0.10;;;;;;;11.74;61.56;101569.53;5083272;28;20021;-87
2023/12/20 11:01:50;;;;;;;0.10;0.10;;;;;;;11.85;61.23;101557.88;5072483;28;20028;-87
2023/12/20 11:04:23;;;;;;;1.85;1.75;;;;;;;11.82;62.02;101553.50;5083840;28;20036;-83
2023/12/20 11:09:34;;;;;;;0.10;0.10;;;;;;;11.76;62.46;101564.19;5137647;27;20352;-79
2023/12/20 11:14:57;;;;;;;0.10;0.10;;;;;;;11.84;61.59;101557.00;5107820;27;20348;-81
2023/12/20 11:17:24;;;;;;;0.10;0.10;;;;;;;11.81;62.31;101543.75;5114181;28;20092;-79
2023/12/20 11:22:34;;;;;;;0.10;0.10;;;;;;;11.80;61.97;101534.03;5052156;28;20411;-81
2023/12/20 11:25:09;;;;;;;0.20;0.20;;;;;;;12.03;62.16;101531.09;5052791;28;20577;-82
2023/12/20 11:27:43;;;;;;;0.10;0.10;;;;;;;11.99;61.78;101545.31;5049005;28;20017;-84
2023/12/20 11:30:09;;;;;;;0.10;0.10;;;;;;;11.87;61.76;101553.44;5050060;28;20572;-82
2023/12/20 11:32:36;;;;;;;0.77;0.63;;;;;;;11.95;61.86;101535.59;5051946;28;20033;-81
2023/12/20 11:35:23;;;;;;;0.10;0.10;;;;;;;12.06;61.92;101535.47;5053476;28;20079;-83